Sims Road Atmospheric Data: 05/15/2019 Summary  Detailed Graphs  Station List

  Temperature     Wind Precipitation Visibility
Timestamp Air Wet
Bulb
Dew-
point
24-hr
Max
24-hr
Min
Relative
Humidity
Atmospheric
Pressure
Avg
Speed
Avg
Dir
Spot
Speed
Spot
Dir
Max
Speed
Max
Dir
  Rate Situation Start End 1 hr 3 hr 6 hr 12 hr 24 hr   Situation
Date Time °F °F °F °F °F % in Hg mph ° mph ° mph ° Y/N in/hr text Date Time Date Time in in in in in mi text
05/15/2019 12:05 AM 56.48 52.34 48.92 71.06 50.18 75.0 Not Reported 0.89 N 1.79 NE 2.46 NW No 0.000 No Precipitation     0.000 0.000 0.000 0.000 0.000 Not Reported Not Reported
05/15/2019 12:20 AM 56.30 52.34 49.28 71.06 50.18 76.0 Not Reported 1.79 W 2.24 W 2.24 W No 0.000 No Precipitation     0.000 0.000 0.000 0.000 0.000 Not Reported Not Reported
05/15/2019 12:35 AM 56.12 52.34 49.28 71.06 50.18 77.0 Not Reported 0.22 E 0.45 E 2.46 NW No 0.000 No Precipitation     0.000 0.000 0.000 0.000 0.000 Not Reported Not Reported
05/15/2019 12:50 AM 56.48 52.16 48.56 71.06 50.18 74.0 Not Reported 1.57 N 1.79 N 3.13 N No 0.000 No Precipitation     0.000 0.000 0.000 0.000 0.000 Not Reported Not Reported
05/15/2019 01:05 AM 56.12 52.16 48.92 71.06 50.18 76.0 Not Reported 0.22 NE 0.00 NE 2.24 N No 0.000 No Precipitation     0.000 0.000 0.000 0.000 0.000 Not Reported Not Reported
05/15/2019 01:20 AM 55.58 51.80 48.92 71.06 50.18 77.0 Not Reported 0.67 N 0.67 N 1.57 NE No 0.000 No Precipitation     0.000 0.000 0.000 0.000 0.000 Not Reported Not Reported
05/15/2019 01:35 AM 55.58 51.98 48.92 71.06 50.18 78.0 Not Reported 0.45 NE 0.22 NE 1.79 N No 0.000 No Precipitation     0.000 0.000 0.000 0.000 0.000 Not Reported Not Reported
05/15/2019 01:50 AM 55.40 51.80 48.92 71.06 50.18 78.0 Not Reported 0.00 N 0.00 NE 2.01 NW No 0.000 No Precipitation     0.000 0.000 0.000 0.000 0.000 Not Reported Not Reported
05/15/2019 02:05 AM 55.58 51.80 48.92 71.06 50.18 78.0 Not Reported 0.67 N 0.67 N 1.34 N No 0.000 No Precipitation     0.000 0.000 0.000 0.000 0.000 Not Reported Not Reported
05/15/2019 02:20 AM 55.40 51.98 49.10 71.06 50.18 78.0 Not Reported 0.89 NW 0.45 N 2.01 N No 0.000 No Precipitation     0.000 0.000 0.000 0.000 0.000 Not Reported Not Reported
05/15/2019 02:35 AM 55.40 51.80 48.92 71.06 50.18 79.0 Not Reported 0.00 N 0.00 E 2.68 N No 0.000 No Precipitation     0.000 0.000 0.000 0.000 0.000 Not Reported Not Reported
05/15/2019 02:50 AM 55.22 51.62 48.74 71.06 50.18 78.0 Not Reported 0.00 N 0.00 NE 0.45 S No 0.000 No Precipitation     0.000 0.000 0.000 0.000 0.000 Not Reported Not Reported
05/15/2019 03:05 AM 55.04 51.62 48.74 71.06 50.18 79.0 Not Reported 1.12 N 1.34 N 0.89 NE No 0.000 No Precipitation     0.000 0.000 0.000 0.000 0.000 Not Reported Not Reported
05/15/2019 03:20 AM 54.86 51.44 48.74 71.06 50.18 79.0 Not Reported 0.45 N 0.45 N 1.12 NE No 0.000 No Precipitation     0.000 0.000 0.000 0.000 0.000 Not Reported Not Reported
05/15/2019 03:35 AM 54.68 51.44 48.74 71.06 50.18 80.0 Not Reported 0.00 NE 0.00 N 1.57 N No 0.000 No Precipitation     0.000 0.000 0.000 0.000 0.000 Not Reported Not Reported
05/15/2019 03:50 AM 54.68 51.44 48.56 71.06 50.18 79.0 Not Reported 0.22 N 0.00 N 0.89 N No 0.000 No Precipitation     0.000 0.000 0.000 0.000 0.000 Not Reported Not Reported
05/15/2019 04:05 AM 54.68 51.26 48.56 71.06 50.18 80.0 Not Reported 0.67 NE 0.67 E 1.79 NW No 0.000 No Precipitation     0.000 0.000 0.000 0.000 0.000 Not Reported Not Reported
05/15/2019 04:20 AM 54.32 51.26 48.56 71.06 50.18 80.0 Not Reported 0.45 N 0.45 N 1.12 NE No 0.000 No Precipitation     0.000 0.000 0.000 0.000 0.000 Not Reported Not Reported
05/15/2019 04:35 AM 54.32 51.26 48.74 71.06 50.18 81.0 Not Reported 0.00 N 0.00 S 0.89 N No 0.000 No Precipitation     0.000 0.000 0.000 0.000 0.000 Not Reported Not Reported
05/15/2019 04:50 AM 54.14 51.26 48.92 71.06 50.18 82.0 Not Reported 0.00 N 0.00 SE 0.45 E No 0.000 No Precipitation     0.000 0.000 0.000 0.000 0.000 Not Reported Not Reported
05/15/2019 05:05 AM 53.96 51.26 49.10 71.06 50.18 83.0 Not Reported 0.67 NE 0.00 NE 1.34 N No 0.000 No Precipitation     0.000 0.000 0.000 0.000 0.000 Not Reported Not Reported
05/15/2019 05:20 AM 53.96 51.44 49.46 71.06 50.18 84.0 Not Reported 0.00 N 0.00 N 0.22 N No 0.000 No Precipitation     0.000 0.000 0.000 0.000 0.000 Not Reported Not Reported
05/15/2019 05:35 AM 53.42 51.08 49.10 71.06 50.18 85.0 Not Reported 0.22 NE 0.89 N 2.01 N No 0.000 No Precipitation     0.000 0.000 0.000 0.000 0.000 Not Reported Not Reported
05/15/2019 05:50 AM 53.06 51.08 49.28 71.06 50.18 86.0 Not Reported 0.00 E 0.22 E 2.91 W No 0.000 No Precipitation     0.000 0.000 0.000 0.000 0.000 Not Reported Not Reported
05/15/2019 06:05 AM 52.88 51.08 49.46 71.06 50.18 87.0 Not Reported 0.45 N 0.67 NE 0.89 E No 0.000 No Precipitation     0.000 0.000 0.000 0.000 0.000 Not Reported Not Reported
05/15/2019 06:20 AM 52.88 50.90 49.28 71.06 50.18 87.0 Not Reported 0.00 N 0.00 E 1.34 NW No 0.000 No Precipitation     0.000 0.000 0.000 0.000 0.000 Not Reported Not Reported
05/15/2019 06:35 AM 53.06 51.08 49.46 71.06 50.18 87.0 Not Reported 0.00 N 0.45 NE 0.67 NE No 0.000 No Precipitation     0.000 0.000 0.000 0.000 0.000 Not Reported Not Reported
05/15/2019 06:50 AM 53.06 50.90 49.10 71.06 50.18 86.0 Not Reported 0.00 N 0.00 E 0.67 NE No 0.000 No Precipitation     0.000 0.000 0.000 0.000 0.000 Not Reported Not Reported
05/15/2019 07:05 AM 53.06 50.90 49.10 71.06 50.18 86.0 Not Reported 0.45 NE 0.45 E 2.46 NE No 0.000 No Precipitation     0.000 0.000 0.000 0.000 0.000 Not Reported Not Reported
05/15/2019 07:20 AM 53.06 50.90 49.10 71.06 50.18 85.0 Not Reported 0.00 E 0.22 NE 1.79 SE No 0.000 No Precipitation     0.000 0.000 0.000 0.000 0.000 Not Reported Not Reported
05/15/2019 07:35 AM 53.06 50.90 48.92 71.06 50.18 85.0 Not Reported 0.45 SE 1.12 SE 1.79 SE No 0.000 No Precipitation     0.000 0.000 0.000 0.000 0.000 Not Reported Not Reported
05/15/2019 07:50 AM 53.78 51.26 49.28 71.06 50.72 84.0 Not Reported 0.00 E 0.22 E 1.57 NE No 0.000 No Precipitation     0.000 0.000 0.000 0.000 0.000 Not Reported Not Reported
05/15/2019 08:05 AM 54.32 51.44 49.10 71.06 51.08 82.0 Not Reported 2.24 NW 1.57 NE 1.79 N No 0.000 No Precipitation     0.000 0.000 0.000 0.000 0.000 Not Reported Not Reported
05/15/2019 08:20 AM 54.14 51.44 49.28 71.06 51.44 83.0 Not Reported 2.91 N 4.92 N 4.92 N No 0.000 No Precipitation     0.000 0.000 0.000 0.000 0.000 Not Reported Not Reported
05/15/2019 08:35 AM 53.96 51.26 49.28 71.06 52.52 83.0 Not Reported 0.89 E 0.00 E 4.03 NE No 0.000 No Precipitation     0.000 0.000 0.000 0.000 0.000 Not Reported Not Reported
05/15/2019 08:50 AM 53.78 51.44 49.46 71.06 52.88 85.0 Not Reported 0.22 S 0.45 S 0.67 SE No 0.000 No Precipitation     0.000 0.000 0.000 0.000 0.000 Not Reported Not Reported
05/15/2019 09:05 AM 53.78 51.98 50.36 71.06 52.88 88.0 Not Reported 1.12 SW 0.45 S 3.36 S No 0.000 No Precipitation     0.000 0.000 0.000 0.000 0.000 Not Reported Not Reported
05/15/2019 09:20 AM 53.78 52.16 50.90 71.06 52.88 90.0 Not Reported 2.68 S 2.91 SE 3.36 S No 0.000 No Precipitation 05/15/2019 01:07 AM 05/15/2019 01:20 AM 0.016 0.016 0.016 0.016 0.016 Not Reported Not Reported
05/15/2019 09:35 AM 53.06 51.62 50.18 71.06 52.88 90.0 Not Reported 6.04 S 8.72 S 8.50 SW Yes 0.043 Rain Slight 05/15/2019 01:34 AM   0.087 0.087 0.087 0.087 0.087 Not Reported Not Reported
05/15/2019 09:50 AM 52.52 50.72 49.28 71.06 52.52 88.0 Not Reported 2.68 S 1.12 S 7.61 S Yes 0.043 Rain Slight 05/15/2019 01:42 AM   0.091 0.091 0.091 0.091 0.091 Not Reported Not Reported
05/15/2019 10:05 AM 52.34 50.72 49.46 71.06 51.98 89.0 Not Reported 0.45 SE 2.01 SE 6.93 S Yes 0.043 Rain Slight 05/15/2019 01:51 AM   0.110 0.110 0.110 0.110 0.110 Not Reported Not Reported
05/15/2019 10:20 AM 52.52 51.26 50.18 71.06 51.98 91.0 Not Reported 0.00 SW 0.00 SW 2.68 E Yes 0.128 Rain Moderate 05/15/2019 01:51 AM   0.126 0.142 0.142 0.142 0.142 Not Reported Not Reported
05/15/2019 10:35 AM 52.52 51.44 50.36 71.06 51.80 92.0 Not Reported 1.57 SE 0.89 SE 4.47 S Yes 0.085 Rain Moderate 05/15/2019 01:51 AM   0.083 0.169 0.169 0.169 0.169 Not Reported Not Reported
05/15/2019 10:50 AM 52.16 50.90 50.00 71.06 51.80 92.0 Not Reported 2.24 SE 2.46 S 4.25 S Yes 0.043 Rain Slight 05/15/2019 01:51 AM   0.102 0.197 0.197 0.197 0.197 Not Reported Not Reported
05/15/2019 11:05 AM 52.16 51.08 50.18 71.06 51.80 93.0 Not Reported 1.79 S 2.24 S 4.47 S Yes 0.085 Rain Moderate 05/15/2019 01:51 AM   0.102 0.220 0.220 0.220 0.220 Not Reported Not Reported
05/15/2019 11:20 AM 51.80 50.72 50.00 71.06 51.80 93.0 Not Reported 3.80 SE 4.03 SE 4.92 SE Yes 0.043 Rain Slight 05/15/2019 01:51 AM   0.091 0.232 0.232 0.232 0.232 Not Reported Not Reported
05/15/2019 11:35 AM 52.34 51.26 50.54 71.06 51.62 93.0 Not Reported 2.24 S 2.24 S 5.37 S Yes 0.043 Rain Slight 05/15/2019 03:31 AM   0.067 0.240 0.240 0.240 0.240 Not Reported Not Reported
05/15/2019 11:50 AM 51.62 50.54 49.64 71.06 51.62 92.0 Not Reported 4.47 S 7.16 SW 7.16 SW Yes 0.085 Rain Moderate 05/15/2019 03:31 AM   0.063 0.260 0.260 0.260 0.260 Not Reported Not Reported
05/15/2019 12:05 PM 51.80 50.54 49.64 71.06 51.44 92.0 Not Reported 3.58 S 2.46 SE 5.37 SE No 0.000 No Precipitation 05/15/2019 03:59 AM 05/15/2019 04:04 AM 0.043 0.268 0.268 0.268 0.268 Not Reported Not Reported
05/15/2019 12:20 PM 51.98 50.72 49.82 71.06 51.44 91.0 Not Reported 2.68 S 2.68 SE 4.25 S Yes 0.043 Rain Slight 05/15/2019 04:17 AM   0.043 0.264 0.280 0.280 0.280 Not Reported Not Reported
05/15/2019 12:35 PM 52.34 51.08 50.00 71.06 51.44 92.0 Not Reported 3.80 S 2.46 SE 2.91 S Yes 0.043 Rain Slight 05/15/2019 04:23 AM   0.055 0.205 0.295 0.295 0.295 Not Reported Not Reported
05/15/2019 12:50 PM 52.52 51.44 50.36 71.06 51.44 92.0 Not Reported 1.34 S 1.34 SE 4.47 S Yes 0.043 Rain Slight 05/15/2019 04:23 AM   0.055 0.220 0.315 0.315 0.315 Not Reported Not Reported
05/15/2019 01:05 PM 51.80 50.54 49.46 71.06 51.44 92.0 Not Reported 2.24 SW 0.22 E 2.01 SE Yes 0.043 Rain Slight 05/15/2019 04:23 AM   0.063 0.217 0.331 0.331 0.331 Not Reported Not Reported
05/15/2019 01:20 PM 52.16 50.72 49.64 71.06 51.44 91.0 Not Reported 3.58 SE 3.80 E 4.47 SW Yes 0.043 Rain Slight 05/15/2019 05:19 AM   0.063 0.201 0.343 0.343 0.343 Not Reported Not Reported
05/15/2019 01:35 PM 52.16 50.72 49.46 71.06 51.44 90.0 Not Reported 3.13 S 1.34 W 7.61 S Yes 0.043 Rain Slight 05/15/2019 05:35 AM   0.059 0.181 0.354 0.354 0.354 Not Reported Not Reported
05/15/2019 01:50 PM 52.52 51.08 50.00 71.06 51.44 91.0 Not Reported 2.91 W 2.01 SE 5.82 SW Yes 0.043 Rain Slight 05/15/2019 05:49 AM   0.043 0.165 0.362 0.362 0.362 Not Reported Not Reported
05/15/2019 02:05 PM 52.34 50.90 49.64 71.06 51.44 90.0 Not Reported 2.91 S 2.46 SW 4.25 SE Yes 0.043 Rain Slight 05/15/2019 05:49 AM   0.043 0.157 0.374 0.374 0.374 Not Reported Not Reported
05/15/2019 02:20 PM 52.88 51.62 50.54 71.06 51.44 91.0 Not Reported 2.91 SE 5.37 S 5.37 S Yes 0.043 Rain Slight 05/15/2019 06:19 AM   0.043 0.157 0.390 0.390 0.390 Not Reported Not Reported
05/15/2019 02:35 PM 53.24 51.98 51.08 71.06 51.44 92.0 Not Reported 3.36 S 3.58 S 4.25 SE No 0.000 No Precipitation 05/15/2019 06:29 AM 05/15/2019 06:34 AM 0.039 0.154 0.394 0.394 0.394 Not Reported Not Reported
05/15/2019 02:50 PM 52.70 51.62 50.54 71.06 51.44 92.0 Not Reported 1.12 SE 1.79 SE 4.70 S Yes 0.085 Rain Moderate 05/15/2019 06:48 AM   0.043 0.150 0.409 0.409 0.409 Not Reported Not Reported
05/15/2019 03:05 PM 53.06 51.98 51.08 71.06 51.44 92.0 Not Reported 3.58 SE 0.45 SE 3.13 SE Yes 0.128 Rain Moderate 05/15/2019 06:48 AM   0.055 0.165 0.433 0.433 0.433 Not Reported Not Reported
05/15/2019 03:20 PM 53.24 52.16 51.26 71.06 51.44 93.0 Not Reported 2.01 S 1.79 SE 5.37 S Yes 0.043 Rain Slight 05/15/2019 06:48 AM   0.055 0.165 0.429 0.441 0.441 Not Reported Not Reported
05/15/2019 03:35 PM 53.06 51.98 51.08 71.06 51.44 92.0 Not Reported 4.03 S 1.57 SW 7.16 SW Yes 0.085 Rain Moderate 05/15/2019 07:26 AM   0.071 0.165 0.374 0.465 0.465 Not Reported Not Reported
05/15/2019 03:50 PM 53.24 51.98 51.08 71.06 51.44 92.0 Not Reported 3.36 S 3.58 SE 5.82 W No 0.000 No Precipitation 05/15/2019 07:26 AM 05/15/2019 07:48 AM 0.071 0.161 0.382 0.472 0.472 Not Reported Not Reported
05/15/2019 04:05 PM 53.06 51.80 50.72 70.34 51.44 91.0 Not Reported 4.70 S 2.91 S 6.49 SW Yes 0.043 Rain Slight 05/15/2019 08:04 AM   0.043 0.150 0.362 0.480 0.480 Not Reported Not Reported
05/15/2019 04:20 PM 53.42 51.80 50.72 70.34 51.44 90.0 Not Reported 4.03 S 3.36 S 7.83 S Yes 0.043 Rain Slight 05/15/2019 08:19 AM   0.051 0.154 0.354 0.492 0.492 Not Reported Not Reported
05/15/2019 04:35 PM 53.24 51.80 50.72 68.90 51.44 90.0 Not Reported 3.58 S 3.36 S 6.93 S Yes 0.184 Rain Moderate 05/15/2019 08:27 AM   0.051 0.161 0.343 0.516 0.516 Not Reported Not Reported
05/15/2019 04:50 PM 53.60 52.16 51.26 68.90 51.44 91.0 Not Reported 2.91 E 1.57 NE 8.05 SW Yes 0.085 Rain Moderate 05/15/2019 08:27 AM   0.071 0.185 0.350 0.547 0.547 Not Reported Not Reported
05/15/2019 05:05 PM 53.24 51.98 50.90 68.72 51.44 91.0 Not Reported 4.70 S 2.01 W 5.59 S Yes 0.184 Rain Moderate 05/15/2019 08:59 AM   0.083 0.185 0.343 0.567 0.567 Not Reported Not Reported
05/15/2019 05:20 PM 53.24 51.98 50.90 68.72 51.44 91.0 Not Reported 2.68 S 1.79 SW 5.14 SE Yes 0.128 Rain Moderate 05/15/2019 08:59 AM   0.110 0.217 0.374 0.606 0.606 Not Reported Not Reported
05/15/2019 05:35 PM 53.42 52.16 51.26 68.72 51.44 92.0 Not Reported 1.34 SE 1.79 SE 3.36 S No 0.000 No Precipitation 05/15/2019 08:59 AM 05/15/2019 09:28 AM 0.091 0.217 0.370 0.610 0.610 Not Reported Not Reported
05/15/2019 05:50 PM 52.88 51.98 50.90 68.54 51.44 92.0 Not Reported 1.57 S 1.12 SW 7.83 SW Yes 0.128 Rain Moderate 05/15/2019 09:36 AM   0.102 0.244 0.390 0.650 0.650 Not Reported Not Reported
05/15/2019 06:05 PM 53.06 51.80 50.90 68.36 51.44 92.0 Not Reported 4.92 S 1.34 S 8.28 S Yes 0.128 Rain Moderate 05/15/2019 09:36 AM   0.102 0.240 0.402 0.669 0.669 Not Reported Not Reported
05/15/2019 06:20 PM 52.70 51.62 50.72 68.18 51.44 92.0 Not Reported 3.58 SE 2.91 SE 4.47 S No 0.000 No Precipitation 05/15/2019 10:11 AM 05/15/2019 10:16 AM 0.071 0.228 0.394 0.673 0.673 Not Reported Not Reported
05/15/2019 06:35 PM 52.88 51.80 50.90 68.18 51.44 92.0 Not Reported 2.91 S 1.79 S 4.92 SE Yes 0.085 Rain Moderate 05/15/2019 10:20 AM   0.083 0.228 0.402 0.693 0.693 Not Reported Not Reported
05/15/2019 06:50 PM 52.88 51.62 50.72 68.00 51.44 92.0 Not Reported 3.36 S 3.36 S 4.70 S Yes 0.128 Rain Moderate 05/15/2019 10:20 AM   0.079 0.252 0.413 0.728 0.728 Not Reported Not Reported
05/15/2019 07:05 PM 52.70 51.44 50.54 67.46 51.44 92.0 Not Reported 2.24 SE 2.24 SE 5.37 SE Yes 0.227 Rain Moderate 05/15/2019 10:20 AM   0.098 0.291 0.441 0.768 0.768 Not Reported Not Reported
05/15/2019 07:20 PM 52.52 51.26 50.36 66.92 51.44 92.0 Not Reported 2.01 SE 1.79 SE 4.25 SE Yes 0.128 Rain Moderate 05/15/2019 10:20 AM   0.146 0.323 0.480 0.823 0.823 Not Reported Not Reported
05/15/2019 07:35 PM 52.34 51.26 50.36 66.56 51.44 92.0 Not Reported 2.46 S 1.79 NE 2.24 SE Yes 0.085 Rain Moderate 05/15/2019 10:20 AM   0.154 0.335 0.492 0.846 0.846 Not Reported Not Reported
05/15/2019 07:50 PM 52.34 51.26 50.54 66.20 51.44 93.0 Not Reported 1.79 S 1.12 SW 3.58 SW Yes 0.085 Rain Moderate 05/15/2019 10:20 AM   0.150 0.331 0.516 0.878 0.878 Not Reported Not Reported
05/15/2019 08:05 PM 52.34 51.26 50.36 65.12 51.44 93.0 Not Reported 2.68 SE 2.01 SE 2.91 NE Yes 0.085 Rain Moderate 05/15/2019 12:02 PM   0.126 0.331 0.520 0.898 0.898 Not Reported Not Reported
05/15/2019 08:20 PM 52.52 51.62 50.72 63.50 51.44 93.0 Not Reported 2.68 SW 2.46 W 5.37 S Yes 0.085 Rain Moderate 05/15/2019 12:02 PM   0.102 0.315 0.535 0.925 0.925 Not Reported Not Reported
05/15/2019 08:35 PM 52.34 51.44 50.54 62.96 51.44 93.0 Not Reported 0.00 N 0.00 E 2.91 SW Yes 0.184 Rain Moderate 05/15/2019 12:02 PM   0.118 0.354 0.575 0.969 0.969 Not Reported Not Reported
05/15/2019 08:50 PM 52.52 51.62 50.90 62.06 51.44 93.0 Not Reported 1.12 W 1.79 SW 3.13 SE Yes 0.184 Rain Moderate 05/15/2019 12:02 PM   0.134 0.362 0.606 1.012 1.012 Not Reported Not Reported
05/15/2019 09:05 PM 52.70 51.80 51.08 61.52 51.44 94.0 Not Reported 2.68 S 2.01 S 6.71 SW Yes 0.085 Rain Moderate 05/15/2019 12:02 PM   0.142 0.362 0.606 1.039 1.039 Not Reported Not Reported
05/15/2019 09:20 PM 52.16 51.26 50.18 60.98 51.44 93.0 Not Reported 3.58 S 5.59 SW 5.59 SW Yes 0.128 Rain Moderate 05/15/2019 12:02 PM   0.150 0.394 0.630 1.059 1.075 Not Reported Not Reported
05/15/2019 09:35 PM 51.98 50.90 50.00 60.62 51.44 92.0 Not Reported 1.57 S 4.47 SW 6.26 SW Yes 0.184 Rain Moderate 05/15/2019 12:02 PM   0.165 0.441 0.669 1.051 1.138 Not Reported Not Reported
05/15/2019 09:50 PM 51.80 50.72 49.82 60.08 51.44 92.0 Not Reported 3.13 SE 1.34 SE 5.37 SE Yes 0.227 Rain Moderate 05/15/2019 12:02 PM   0.169 0.453 0.709 1.091 1.185 Not Reported Not Reported
05/15/2019 10:05 PM 51.44 50.36 49.46 59.90 51.44 92.0 Not Reported 2.46 S 0.00 NW 8.95 SW Yes 0.128 Rain Moderate 05/15/2019 12:02 PM   0.185 0.453 0.748 1.114 1.228 Not Reported Not Reported
05/15/2019 10:20 PM 51.44 50.18 48.74 59.54 51.26 90.0 Not Reported 3.13 S 5.14 SW 5.14 SW Yes 0.128 Rain Moderate 05/15/2019 12:02 PM   0.189 0.441 0.768 1.126 1.264 Not Reported Not Reported
05/15/2019 10:35 PM 51.44 50.00 48.92 59.36 51.26 90.0 Not Reported 1.34 S 1.57 NW 8.50 S Yes 0.184 Rain Moderate 05/15/2019 12:02 PM   0.169 0.461 0.791 1.138 1.311 Not Reported Not Reported
05/15/2019 10:50 PM 50.90 49.64 48.56 59.36 50.90 91.0 Not Reported 3.58 NW 1.79 S 5.14 N Yes 0.227 Rain Moderate 05/15/2019 12:02 PM   0.189 0.500 0.827 1.181 1.378 Not Reported Not Reported
05/15/2019 11:05 PM 50.90 49.46 48.20 59.36 50.90 90.0 Not Reported 2.46 S 3.13 SE 7.16 S Yes 0.269 Rain Moderate 05/15/2019 12:02 PM   0.205 0.539 0.866 1.217 1.437 Not Reported Not Reported
05/15/2019 11:20 PM 50.90 49.28 48.20 59.36 50.72 90.0 Not Reported 2.68 SW 2.91 SE 5.82 W Yes 0.085 Rain Moderate 05/15/2019 12:02 PM   0.201 0.543 0.862 1.236 1.469 Not Reported Not Reported
05/15/2019 11:35 PM 50.90 49.28 48.02 58.28 50.72 90.0 Not Reported 2.46 SW 3.36 S 4.92 NW Yes 0.085 Rain Moderate 05/15/2019 12:02 PM   0.185 0.528 0.886 1.256 1.496 Not Reported Not Reported
05/15/2019 11:50 PM 50.90 49.46 48.38 57.74 50.72 91.0 Not Reported 0.89 SE 0.67 E 2.91 W Yes 0.128 Rain Moderate 05/15/2019 12:02 PM   0.150 0.516 0.878 1.264 1.528 Not Reported Not Reported